Time;durP1;ratioP1;P1;durP2;ratioP2;P2;SDS_P1;SDS_P2;PMS_P1;PMS_P2;Temp;Humidity;BMP_temperature;BMP_pressure;BME280_temperature;BME280_humidity;BME280_pressure;Samples;Min_cycle;Max_cycle;Signal;HPM_P1;HPM_P2
2023/06/15 00:00:45;;;;;;;6.10;2.65;;;16.90;99.90;;;;;;5012599;28;20045;-69
2023/06/15 00:03:11;;;;;;;6.75;3.08;;;16.80;99.90;;;;;;5012599;28;20125;-69
2023/06/15 00:05:37;;;;;;;7.78;3.30;;;16.70;99.90;;;;;;5013721;28;20481;-69
2023/06/15 00:08:03;;;;;;;9.57;3.40;;;16.60;99.90;;;;;;5013389;28;20050;-69
2023/06/15 00:10:29;;;;;;;6.80;2.70;;;16.60;99.90;;;;;;5013154;28;20100;-69
2023/06/15 00:12:55;;;;;;;5.75;3.03;;;16.60;99.90;;;;;;5013442;28;20053;-69
2023/06/15 00:15:21;;;;;;;6.55;2.80;;;16.40;99.90;;;;;;5012389;28;20397;-69
2023/06/15 00:17:47;;;;;;;7.30;3.08;;;16.30;99.90;;;;;;5013325;28;20053;-69
2023/06/15 00:20:13;;;;;;;7.00;3.15;;;16.30;99.90;;;;;;5013303;28;20048;-70
2023/06/15 00:22:41;;;;;;;7.68;3.08;;;16.20;99.90;;;;;;5013225;28;20131;-69
2023/06/15 00:25:10;;;;;;;5.97;3.05;;;16.30;99.90;;;;;;5013522;28;20046;-69
2023/06/15 00:27:35;;;;;;;6.07;2.85;;;16.30;99.90;;;;;;5013243;28;20047;-69
2023/06/15 00:30:03;;;;;;;7.57;3.10;;;16.30;99.90;;;;;;5013514;28;20041;-69
2023/06/15 00:32:29;;;;;;;7.65;3.25;;;16.30;99.90;;;;;;5011985;28;20053;-69
2023/06/15 00:34:54;;;;;;;6.70;3.10;;;16.30;99.90;;;;;;5013429;28;20459;-69
2023/06/15 00:37:20;;;;;;;7.75;3.65;;;16.20;99.90;;;;;;5013385;28;20441;-69
2023/06/15 00:39:46;;;;;;;8.40;3.20;;;16.10;99.90;;;;;;5013115;28;20044;-69
2023/06/15 00:42:11;;;;;;;6.65;3.08;;;16.10;99.90;;;;;;5013068;28;20038;-69
2023/06/15 00:44:37;;;;;;;6.72;3.15;;;16.00;99.90;;;;;;5012167;28;20069;-69
2023/06/15 00:47:03;;;;;;;6.45;2.90;;;16.00;99.90;;;;;;5013068;28;20088;-69
2023/06/15 00:49:31;;;;;;;7.18;3.40;;;16.00;99.90;;;;;;5012134;28;20054;-68
2023/06/15 00:51:57;;;;;;;7.35;3.08;;;16.00;99.90;;;;;;5012954;28;20045;-68
2023/06/15 00:54:24;;;;;;;8.15;3.30;;;16.00;99.90;;;;;;5011875;28;20079;-68
2023/06/15 00:56:50;;;;;;;6.68;3.17;;;16.00;99.90;;;;;;5011936;28;20188;-69
2023/06/15 00:59:17;;;;;;;6.97;3.25;;;16.00;99.90;;;;;;5012035;28;20045;-68
2023/06/15 01:01:44;;;;;;;8.52;3.08;;;16.00;99.90;;;;;;5013175;28;20049;-69
2023/06/15 01:04:10;;;;;;;7.03;3.20;;;16.00;99.90;;;;;;5011934;28;20049;-68
2023/06/15 01:06:41;;;;;;;7.43;3.08;;;16.10;99.90;;;;;;5011902;28;20064;-69
2023/06/15 01:09:09;;;;;;;7.93;3.15;;;16.10;99.90;;;;;;5012656;28;20092;-69
2023/06/15 01:11:36;;;;;;;5.95;2.92;;;16.00;99.90;;;;;;5011946;28;20104;-68
2023/06/15 01:14:04;;;;;;;6.65;3.00;;;15.90;99.90;;;;;;5011502;28;20046;-68
2023/06/15 01:16:41;;;;;;;7.20;3.03;;;15.90;99.90;;;;;;5013015;28;20477;-68
2023/06/15 01:19:37;;;;;;;7.20;3.08;;;15.80;99.90;;;;;;5011832;28;20096;-68
2023/06/15 01:22:35;;;;;;;6.18;2.78;;;15.80;99.90;;;;;;5009593;28;20050;-69
2023/06/15 01:25:29;;;;;;;5.85;2.72;;;15.80;99.90;;;;;;5004635;28;20449;-69
2023/06/15 01:28:02;;;;;;;6.30;2.70;;;15.90;99.90;;;;;;5012975;28;20042;-69
2023/06/15 01:30:34;;;;;;;5.65;2.47;;;16.00;99.90;;;;;;5012969;28;20136;-69
2023/06/15 01:33:00;;;;;;;7.20;3.20;;;16.00;99.90;;;;;;5012943;28;20046;-69
2023/06/15 01:35:26;;;;;;;6.25;3.10;;;16.10;99.90;;;;;;5011618;28;20096;-70
2023/06/15 01:37:51;;;;;;;8.10;3.40;;;16.10;99.90;;;;;;5012631;28;20103;-69
2023/06/15 01:40:17;;;;;;;8.32;3.47;;;16.10;99.90;;;;;;5015460;28;20107;-69
2023/06/15 01:42:44;;;;;;;7.80;2.90;;;16.10;99.90;;;;;;5016170;28;20095;-69
2023/06/15 01:45:11;;;;;;;7.32;3.05;;;16.10;99.90;;;;;;5015942;28;20052;-69
2023/06/15 01:47:39;;;;;;;6.45;3.80;;;16.00;99.90;;;;;;5016344;28;20069;-69
2023/06/15 01:50:07;;;;;;;7.60;3.75;;;15.80;99.90;;;;;;5014875;28;20064;-69
2023/06/15 01:52:33;;;;;;;11.27;3.80;;;15.60;99.90;;;;;;5014988;28;20049;-69
2023/06/15 01:54:59;;;;;;;8.55;4.05;;;15.50;99.90;;;;;;5015847;28;20049;-69
2023/06/15 01:57:25;;;;;;;7.93;3.88;;;15.50;99.90;;;;;;5015756;28;20054;-68
2023/06/15 01:59:54;;;;;;;8.55;4.35;;;15.40;99.90;;;;;;4998333;28;20164;-68
2023/06/15 02:02:21;;;;;;;8.65;3.67;;;15.30;99.90;;;;;;5015942;28;20041;-69
2023/06/15 02:04:47;;;;;;;7.07;4.13;;;15.20;99.90;;;;;;5015745;28;20058;-68
2023/06/15 02:07:12;;;;;;;8.18;3.80;;;15.20;99.90;;;;;;5015594;28;20052;-69
2023/06/15 02:09:38;;;;;;;8.18;3.92;;;15.20;99.90;;;;;;5015526;28;20144;-68
2023/06/15 02:12:04;;;;;;;10.00;3.47;;;15.20;99.90;;;;;;5015587;28;20033;-69
2023/06/15 02:14:30;;;;;;;6.95;3.67;;;15.20;99.90;;;;;;5014303;28;20121;-68
2023/06/15 02:16:56;;;;;;;6.85;3.47;;;15.20;99.90;;;;;;5015461;28;20038;-68
2023/06/15 02:19:22;;;;;;;7.55;3.70;;;15.20;99.90;;;;;;5015621;28;20038;-68
2023/06/15 02:21:49;;;;;;;7.90;3.85;;;15.20;99.90;;;;;;5015690;28;20129;-68
2023/06/15 02:24:16;;;;;;;8.07;3.45;;;15.20;99.90;;;;;;5015286;28;20042;-68
2023/06/15 02:26:43;;;;;;;6.13;3.40;;;15.20;99.90;;;;;;5015590;28;20112;-68
2023/06/15 02:29:08;;;;;;;7.90;3.05;;;15.20;99.90;;;;;;5014299;28;20476;-68
2023/06/15 02:31:36;;;;;;;6.97;3.30;;;15.30;99.90;;;;;;5015209;28;20077;-68
2023/06/15 02:34:02;;;;;;;7.18;3.33;;;15.30;99.90;;;;;;5015130;28;20046;-68
2023/06/15 02:36:28;;;;;;;8.65;3.47;;;15.30;99.90;;;;;;5015094;28;20034;-68
2023/06/15 02:38:54;;;;;;;8.05;3.80;;;15.30;99.90;;;;;;5015371;28;20084;-68
2023/06/15 02:41:20;;;;;;;6.53;3.10;;;15.20;99.90;;;;;;5014890;28;20077;-68
2023/06/15 02:43:46;;;;;;;7.10;3.10;;;15.10;99.90;;;;;;5014983;28;20046;-68
2023/06/15 02:46:11;;;;;;;6.85;3.40;;;15.10;99.90;;;;;;4997429;28;20081;-68
2023/06/15 02:48:37;;;;;;;8.10;3.30;;;15.10;99.90;;;;;;5013613;28;20054;-68
2023/06/15 02:51:03;;;;;;;7.57;3.28;;;15.10;99.90;;;;;;5014977;28;20042;-69
2023/06/15 02:53:29;;;;;;;6.50;3.15;;;15.20;99.90;;;;;;5014758;28;20052;-68
2023/06/15 02:55:56;;;;;;;8.07;3.20;;;15.20;99.90;;;;;;5014913;28;20081;-68
2023/06/15 02:58:24;;;;;;;7.55;3.22;;;15.30;99.90;;;;;;5014957;28;20095;-68
2023/06/15 03:00:51;;;;;;;5.80;2.90;;;15.30;99.90;;;;;;5013564;28;20509;-69
2023/06/15 03:03:22;;;;;;;6.22;2.88;;;15.40;99.90;;;;;;5014957;28;20044;-68
2023/06/15 03:05:49;;;;;;;6.55;3.17;;;15.40;99.90;;;;;;4997013;28;20046;-68
2023/06/15 03:08:15;;;;;;;7.43;3.25;;;15.30;99.90;;;;;;5014363;28;20049;-68
2023/06/15 03:10:41;;;;;;;8.00;4.03;;;15.30;99.90;;;;;;5013035;28;20065;-68
2023/06/15 03:13:07;;;;;;;8.73;4.45;;;15.20;99.90;;;;;;5013177;28;20049;-68
2023/06/15 03:15:34;;;;;;;7.55;4.18;;;15.10;99.90;;;;;;5013190;28;20140;-68
2023/06/15 03:18:01;;;;;;;8.07;4.20;;;14.90;99.90;;;;;;5014172;28;20095;-68
2023/06/15 03:20:32;;;;;;;9.18;4.32;;;14.90;99.90;;;;;;5014627;28;20109;-68
2023/06/15 03:22:59;;;;;;;8.35;3.50;;;14.80;99.90;;;;;;5014294;28;20056;-68
2023/06/15 03:25:26;;;;;;;6.50;3.72;;;14.80;99.90;;;;;;5014434;28;20571;-68
2023/06/15 03:27:59;;;;;;;9.48;4.22;;;14.80;99.90;;;;;;5014084;28;20096;-68
2023/06/15 03:30:26;;;;;;;8.23;4.57;;;14.80;99.90;;;;;;5014047;28;20099;-68
2023/06/15 03:32:53;;;;;;;9.05;4.43;;;14.80;99.90;;;;;;5014285;28;20112;-68
2023/06/15 03:35:20;;;;;;;9.48;4.97;;;14.70;99.90;;;;;;5014348;28;20133;-68
2023/06/15 03:37:46;;;;;;;8.70;5.50;;;14.50;99.90;;;;;;5013773;28;20213;-68
2023/06/15 03:40:12;;;;;;;11.82;5.20;;;14.40;99.90;;;;;;5014200;28;20041;-68
2023/06/15 03:42:38;;;;;;;10.50;5.65;;;14.30;99.90;;;;;;5014110;28;20509;-68
2023/06/15 03:45:05;;;;;;;9.15;5.05;;;14.30;99.90;;;;;;5013970;28;20085;-68
2023/06/15 03:47:33;;;;;;;9.35;5.20;;;14.20;99.90;;;;;;5012493;28;20042;-68
2023/06/15 03:49:59;;;;;;;9.68;4.88;;;14.20;99.90;;;;;;5012624;28;20041;-68
2023/06/15 03:52:28;;;;;;;10.35;5.10;;;14.20;99.90;;;;;;5013745;28;20038;-68
2023/06/15 03:54:53;;;;;;;9.15;5.40;;;14.20;99.90;;;;;;5013711;28;20073;-68
2023/06/15 03:57:19;;;;;;;11.80;5.57;;;14.20;99.90;;;;;;5013822;28;20077;-68
2023/06/15 03:59:45;;;;;;;11.05;5.95;;;14.20;99.90;;;;;;5013560;28;20046;-69
2023/06/15 04:02:11;;;;;;;9.55;5.18;;;14.20;99.90;;;;;;5013145;28;20084;-68
2023/06/15 04:04:40;;;;;;;10.32;5.60;;;14.20;99.90;;;;;;5013829;28;20121;-68
2023/06/15 04:07:08;;;;;;;10.45;5.53;;;14.20;99.90;;;;;;5012339;28;20049;-69
2023/06/15 04:09:34;;;;;;;11.27;5.18;;;14.20;99.90;;;;;;5013314;28;20049;-68
2023/06/15 04:12:00;;;;;;;8.77;5.40;;;14.20;99.90;;;;;;5013755;28;20091;-69
2023/06/15 04:14:26;;;;;;;8.98;4.93;;;14.20;99.90;;;;;;5013622;28;20042;-70
2023/06/15 04:16:52;;;;;;;7.95;5.18;;;14.30;99.90;;;;;;5012424;28;20117;-70
2023/06/15 04:19:22;;;;;;;9.00;5.75;;;14.30;99.90;;;;;;5013650;28;20037;-69
2023/06/15 04:21:48;;;;;;;9.38;5.70;;;14.30;99.90;;;;;;5013667;28;20424;-69
2023/06/15 04:24:14;;;;;;;9.98;5.25;;;14.40;99.90;;;;;;5013253;28;20045;-69
2023/06/15 04:26:44;;;;;;;8.52;4.97;;;14.40;99.90;;;;;;5012019;28;20393;-68
2023/06/15 04:29:10;;;;;;;10.07;5.47;;;14.50;99.90;;;;;;5013271;28;20117;-68
2023/06/15 04:31:36;;;;;;;8.05;5.15;;;14.60;99.90;;;;;;5013503;28;20113;-69
2023/06/15 04:34:06;;;;;;;11.07;5.30;;;14.60;99.90;;;;;;5013092;28;20121;-68
2023/06/15 04:36:34;;;;;;;9.80;5.20;;;14.60;99.90;;;;;;5011976;28;20049;-70
2023/06/15 04:39:00;;;;;;;10.02;5.70;;;14.60;99.90;;;;;;5013414;28;20056;-69
2023/06/15 04:41:27;;;;;;;10.00;5.43;;;14.70;99.90;;;;;;5013467;28;20052;-69
2023/06/15 04:43:53;;;;;;;8.48;5.10;;;14.70;99.90;;;;;;5013143;28;20046;-69
2023/06/15 04:46:19;;;;;;;9.00;5.38;;;14.80;99.90;;;;;;5013293;28;20388;-69
2023/06/15 04:48:45;;;;;;;10.80;4.95;;;14.90;99.90;;;;;;4961041;28;20128;-69
2023/06/15 04:51:12;;;;;;;8.93;5.28;;;15.00;99.90;;;;;;5013106;28;20486;-68
2023/06/15 04:53:38;;;;;;;10.13;5.47;;;15.00;99.90;;;;;;5013137;28;20041;-68
2023/06/15 04:56:04;;;;;;;11.57;5.50;;;15.20;99.90;;;;;;5012990;28;20125;-68
2023/06/15 04:58:30;;;;;;;8.82;5.32;;;15.50;99.90;;;;;;5013193;28;20056;-68
2023/06/15 05:00:56;;;;;;;10.10;5.78;;;15.70;99.90;;;;;;5012997;28;20122;-68
2023/06/15 05:03:22;;;;;;;10.15;5.30;;;16.00;99.90;;;;;;5012879;28;20068;-68
2023/06/15 05:05:47;;;;;;;8.48;5.00;;;16.30;99.90;;;;;;5013182;28;20038;-68
2023/06/15 05:08:15;;;;;;;9.38;5.30;;;16.90;99.90;;;;;;5013192;28;20093;-68
2023/06/15 05:10:41;;;;;;;7.50;4.97;;;18.10;99.90;;;;;;4995205;28;20136;-68
2023/06/15 05:13:07;;;;;;;8.57;4.88;;;18.50;99.90;;;;;;5013144;28;20092;-69
2023/06/15 05:15:33;;;;;;;11.35;4.90;;;19.10;99.90;;;;;;5014649;28;20049;-68
2023/06/15 05:17:59;;;;;;;8.35;4.88;;;19.40;99.90;;;;;;5016713;28;20049;-66
2023/06/15 05:20:24;;;;;;;10.27;4.70;;;20.00;98.30;;;;;;4999416;28;20038;-66
2023/06/15 05:22:51;;;;;;;9.38;4.55;;;20.50;97.10;;;;;;5015282;28;20477;-65
2023/06/15 05:25:20;;;;;;;9.48;4.00;;;20.20;95.00;;;;;;5016362;28;20077;-66
2023/06/15 05:27:47;;;;;;;10.13;4.80;;;20.60;94.50;;;;;;5015491;28;20041;-66
2023/06/15 05:30:13;;;;;;;9.10;4.70;;;20.40;92.20;;;;;;4999247;28;20125;-66
2023/06/15 05:32:39;;;;;;;9.05;4.10;;;20.40;92.60;;;;;;5016557;28;20081;-66
2023/06/15 05:35:06;;;;;;;9.68;4.70;;;20.90;93.50;;;;;;5016536;28;20113;-66
2023/06/15 05:37:33;;;;;;;8.88;4.45;;;20.80;91.70;;;;;;5014917;28;20046;-67
2023/06/15 05:39:59;;;;;;;8.90;4.30;;;20.70;91.40;;;;;;5014891;28;20045;-66
2023/06/15 05:42:26;;;;;;;9.63;4.50;;;20.60;91.10;;;;;;4998516;28;20038;-67
2023/06/15 05:44:52;;;;;;;7.60;4.40;;;20.80;90.50;;;;;;5015202;28;20118;-67
2023/06/15 05:47:17;;;;;;;7.28;4.57;;;21.00;88.80;;;;;;5016261;28;20121;-67
2023/06/15 05:49:43;;;;;;;8.32;4.00;;;20.80;88.50;;;;;;5016064;28;20059;-67
2023/06/15 05:52:09;;;;;;;7.10;4.10;;;21.10;87.30;;;;;;5016103;28;20455;-67
2023/06/15 05:54:35;;;;;;;7.65;3.97;;;21.20;87.80;;;;;;5014964;28;20044;-67
2023/06/15 05:57:01;;;;;;;8.10;3.88;;;21.90;84.40;;;;;;5016074;28;20038;-67
2023/06/15 05:59:27;;;;;;;7.28;4.10;;;21.80;82.20;;;;;;5016157;28;20064;-67
2023/06/15 06:01:54;;;;;;;8.57;4.00;;;21.80;81.70;;;;;;5014788;28;20503;-67
2023/06/15 06:04:20;;;;;;;7.93;3.63;;;22.30;80.70;;;;;;5015730;28;20042;-67
2023/06/15 06:06:45;;;;;;;6.82;3.50;;;22.60;78.70;;;;;;5015655;28;20041;-67
2023/06/15 06:09:11;;;;;;;7.97;3.97;;;23.50;76.50;;;;;;5015422;28;20140;-67
2023/06/15 06:11:37;;;;;;;7.07;3.80;;;24.90;72.10;;;;;;5015639;28;20151;-67
2023/06/15 06:14:03;;;;;;;8.70;3.70;;;24.80;68.70;;;;;;5015800;28;20049;-67
2023/06/15 06:16:29;;;;;;;7.05;3.90;;;25.60;64.40;;;;;;5014251;28;20064;-67
2023/06/15 06:18:55;;;;;;;6.95;3.50;;;25.70;60.80;;;;;;5015350;28;20038;-67
2023/06/15 06:21:21;;;;;;;6.93;3.30;;;26.10;59.40;;;;;;5015692;28;20049;-67
2023/06/15 06:23:46;;;;;;;7.53;3.10;;;26.00;55.50;;;;;;5014493;28;20060;-67
2023/06/15 06:26:12;;;;;;;6.82;2.95;;;25.80;55.50;;;;;;5015111;28;20038;-67
2023/06/15 06:28:38;;;;;;;6.28;3.00;;;25.40;53.50;;;;;;5015281;28;20056;-68
2023/06/15 06:31:04;;;;;;;6.72;2.92;;;25.80;51.30;;;;;;4981554;28;20046;-68
2023/06/15 06:33:29;;;;;;;6.60;3.03;;;26.50;52.80;;;;;;5013886;28;20042;-67
2023/06/15 06:35:55;;;;;;;6.55;3.13;;;26.90;51.10;;;;;;5014699;28;20494;-67
2023/06/15 06:38:21;;;;;;;8.90;3.10;;;27.40;51.00;;;;;;5013794;28;20398;-68
2023/06/15 06:40:47;;;;;;;6.55;3.22;;;27.60;49.90;;;;;;5015162;28;20478;-67
2023/06/15 06:43:12;;;;;;;6.88;2.92;;;27.20;49.40;;;;;;5015278;28;20044;-68
2023/06/15 06:45:38;;;;;;;5.90;3.10;;;27.00;50.00;;;;;;5015133;28;20413;-68
2023/06/15 06:48:04;;;;;;;7.75;3.40;;;27.00;50.40;;;;;;5015104;28;20045;-68
2023/06/15 06:50:30;;;;;;;10.20;3.55;;;27.10;51.00;;;;;;5015079;28;20052;-68
2023/06/15 06:52:55;;;;;;;8.70;3.67;;;27.10;50.90;;;;;;5013558;28;20490;-67
2023/06/15 06:55:21;;;;;;;7.15;3.22;;;27.60;50.20;;;;;;5014938;28;20041;-67
2023/06/15 06:57:47;;;;;;;7.00;2.97;;;28.10;50.30;;;;;;5014962;28;20105;-67
2023/06/15 07:00:13;;;;;;;9.50;3.20;;;28.30;49.00;;;;;;5014914;28;20371;-67
2023/06/15 07:02:39;;;;;;;7.43;3.42;;;28.30;48.20;;;;;;5013557;28;20052;-67
2023/06/15 07:05:05;;;;;;;8.85;3.00;;;28.70;47.20;;;;;;5014929;28;20037;-67
2023/06/15 07:07:31;;;;;;;9.02;3.10;;;28.90;46.70;;;;;;5013781;28;20478;-67
2023/06/15 07:09:56;;;;;;;6.70;3.00;;;28.40;44.80;;;;;;5014528;28;20076;-67
2023/06/15 07:12:22;;;;;;;10.45;3.17;;;28.30;45.80;;;;;;5013408;28;20132;-67
2023/06/15 07:14:48;;;;;;;7.30;3.28;;;28.70;45.20;;;;;;5014720;28;20125;-68
2023/06/15 07:17:14;;;;;;;9.43;3.10;;;28.80;44.40;;;;;;5014252;28;20398;-68
2023/06/15 07:19:39;;;;;;;6.88;3.47;;;28.90;44.80;;;;;;5014465;28;20042;-69
2023/06/15 07:22:05;;;;;;;7.32;3.30;;;28.30;44.50;;;;;;5014604;28;20073;-68
2023/06/15 07:24:31;;;;;;;7.50;3.30;;;28.80;44.50;;;;;;5014240;28;20061;-68
2023/06/15 07:26:57;;;;;;;8.20;3.42;;;28.10;43.30;;;;;;5014185;28;20069;-68
2023/06/15 07:29:23;;;;;;;7.15;3.10;;;28.10;44.00;;;;;;5012857;28;20046;-68
2023/06/15 07:31:49;;;;;;;7.40;3.75;;;28.30;44.70;;;;;;5014431;28;20048;-68
2023/06/15 07:34:17;;;;;;;8.15;3.72;;;28.10;43.70;;;;;;5014358;28;20093;-68
2023/06/15 07:36:43;;;;;;;8.52;3.20;;;27.90;44.10;;;;;;5014007;28;20447;-68
2023/06/15 07:39:09;;;;;;;9.35;3.15;;;28.10;45.20;;;;;;5014302;28;20113;-68
2023/06/15 07:41:35;;;;;;;9.45;3.35;;;28.20;44.40;;;;;;5012675;28;20100;-68
2023/06/15 07:44:01;;;;;;;8.13;3.30;;;28.00;43.70;;;;;;5013893;28;20121;-68
2023/06/15 07:46:26;;;;;;;8.13;3.03;;;27.80;44.30;;;;;;5014190;28;20505;-68
2023/06/15 07:48:52;;;;;;;7.32;2.90;;;27.40;45.20;;;;;;5012793;28;20046;-68
2023/06/15 07:51:18;;;;;;;7.00;3.20;;;27.80;43.50;;;;;;5013696;28;20053;-67
2023/06/15 07:53:46;;;;;;;8.10;3.40;;;28.10;43.40;;;;;;5014035;28;20038;-68
2023/06/15 07:56:12;;;;;;;7.47;3.35;;;27.80;43.00;;;;;;5013953;28;20073;-68
2023/06/15 07:58:38;;;;;;;7.25;3.15;;;28.40;43.10;;;;;;5013755;28;20540;-68
2023/06/15 08:01:04;;;;;;;5.80;2.92;;;28.40;43.00;;;;;;5013606;28;20042;-68
2023/06/15 08:03:30;;;;;;;7.15;2.88;;;28.40;42.60;;;;;;5013895;28;20045;-68
2023/06/15 08:05:56;;;;;;;6.95;2.95;;;28.30;41.90;;;;;;5013795;28;20038;-68
2023/06/15 08:08:21;;;;;;;6.65;2.72;;;28.20;41.80;;;;;;5013607;28;20485;-68
2023/06/15 08:10:47;;;;;;;7.30;2.85;;;28.10;40.90;;;;;;5013400;28;20080;-68
2023/06/15 08:13:13;;;;;;;7.20;2.90;;;28.00;40.70;;;;;;5013405;28;20053;-68
2023/06/15 08:15:38;;;;;;;8.52;3.00;;;28.20;40.20;;;;;;5013747;28;20050;-68
2023/06/15 08:18:04;;;;;;;8.18;3.22;;;27.90;39.60;;;;;;4979571;28;20045;-68
2023/06/15 08:20:30;;;;;;;6.78;3.00;;;27.30;41.40;;;;;;5012070;28;20048;-68
2023/06/15 08:22:56;;;;;;;6.63;2.90;;;27.80;41.90;;;;;;5013400;28;20048;-68
2023/06/15 08:25:21;;;;;;;6.97;2.88;;;27.40;42.00;;;;;;5013263;28;20045;-68
2023/06/15 08:27:47;;;;;;;6.38;3.05;;;28.00;42.50;;;;;;5013251;28;20050;-68
2023/06/15 08:30:13;;;;;;;7.07;2.83;;;28.20;40.90;;;;;;5013605;28;20042;-68
2023/06/15 08:32:38;;;;;;;5.97;2.67;;;28.00;40.00;;;;;;5011914;28;20050;-68
2023/06/15 08:35:04;;;;;;;6.82;3.00;;;27.70;40.10;;;;;;5013525;28;20073;-68
2023/06/15 08:37:30;;;;;;;7.85;3.00;;;27.90;41.40;;;;;;5013082;28;20042;-69
2023/06/15 08:39:56;;;;;;;8.27;3.08;;;28.10;40.40;;;;;;5011924;28;20048;-68
2023/06/15 08:42:25;;;;;;;8.80;2.97;;;28.20;41.00;;;;;;5012213;28;20394;-68
2023/06/15 08:44:53;;;;;;;7.70;3.00;;;28.20;40.50;;;;;;5013190;28;20096;-69
2023/06/15 08:47:20;;;;;;;6.13;3.10;;;28.40;40.60;;;;;;5013125;28;20046;-68
2023/06/15 08:49:46;;;;;;;6.15;3.10;;;27.80;41.00;;;;;;5015531;28;20049;-68
2023/06/15 08:52:13;;;;;;;6.43;3.30;;;28.00;40.50;;;;;;5017275;28;20046;-69
2023/06/15 08:54:42;;;;;;;6.82;2.72;;;27.60;40.40;;;;;;5015642;28;20056;-68
2023/06/15 08:57:08;;;;;;;5.90;2.55;;;27.50;40.60;;;;;;5017247;28;20042;-68
2023/06/15 08:59:35;;;;;;;7.07;3.00;;;27.80;38.30;;;;;;5016990;28;20038;-68
2023/06/15 09:02:03;;;;;;;7.53;3.00;;;27.70;38.90;;;;;;5017139;28;20073;-68
2023/06/15 09:04:31;;;;;;;7.28;3.05;;;27.10;38.50;;;;;;5017173;28;20054;-68
2023/06/15 09:06:58;;;;;;;7.35;3.00;;;26.80;39.00;;;;;;5017083;28;20454;-69
2023/06/15 09:09:25;;;;;;;8.02;3.00;;;27.00;39.70;;;;;;5016549;28;20061;-69
2023/06/15 09:11:50;;;;;;;8.23;3.00;;;26.60;39.60;;;;;;5016698;28;20053;-69
2023/06/15 09:14:16;;;;;;;6.78;2.70;;;27.20;40.60;;;;;;5015344;28;20037;-70
2023/06/15 09:16:42;;;;;;;5.90;2.80;;;27.40;39.70;;;;;;5015608;28;20037;-69
2023/06/15 09:19:16;;;;;;;8.05;2.90;;;27.90;39.40;;;;;;5016865;28;20092;-70
2023/06/15 09:21:51;;;;;;;7.22;2.92;;;27.80;39.10;;;;;;5016480;28;20045;-70
2023/06/15 09:24:18;;;;;;;6.25;2.88;;;27.80;38.60;;;;;;5016597;28;20065;-69
2023/06/15 09:26:45;;;;;;;7.85;2.70;;;28.00;38.50;;;;;;5016769;28;20030;-69
2023/06/15 09:29:11;;;;;;;7.22;2.72;;;28.10;39.20;;;;;;5016560;28;20490;-69
2023/06/15 09:31:39;;;;;;;7.03;2.90;;;28.40;38.00;;;;;;5016729;28;20081;-69
2023/06/15 09:34:06;;;;;;;6.15;2.65;;;28.30;37.70;;;;;;5016508;28;20084;-70
2023/06/15 09:36:36;;;;;;;9.02;2.92;;;28.60;37.30;;;;;;5016320;28;20121;-70
2023/06/15 09:39:04;;;;;;;8.43;2.72;;;28.90;36.40;;;;;;5016364;28;20081;-70
2023/06/15 09:41:30;;;;;;;9.70;2.95;;;28.90;36.30;;;;;;5016384;28;20041;-69
2023/06/15 09:43:56;;;;;;;7.43;2.83;;;29.20;36.50;;;;;;5016194;28;20046;-69
2023/06/15 09:46:27;;;;;;;6.90;3.00;;;28.50;36.00;;;;;;5016095;28;20045;-69
2023/06/15 09:48:53;;;;;;;5.82;2.80;;;28.50;36.30;;;;;;5016229;28;20394;-69
2023/06/15 09:51:20;;;;;;;6.20;2.80;;;28.70;35.90;;;;;;5016250;28;20056;-69
2023/06/15 09:53:47;;;;;;;6.13;3.05;;;28.70;36.40;;;;;;5015145;28;20057;-70
2023/06/15 09:56:13;;;;;;;8.20;3.28;;;28.30;35.40;;;;;;5014751;28;20050;-69
2023/06/15 09:58:39;;;;;;;7.75;2.60;;;28.40;35.00;;;;;;5016127;28;20121;-69
2023/06/15 10:01:08;;;;;;;6.65;2.95;;;28.30;36.50;;;;;;5015055;28;20074;-70
2023/06/15 10:03:36;;;;;;;6.72;3.13;;;28.30;37.40;;;;;;5016063;28;20042;-69
2023/06/15 10:06:09;;;;;;;7.35;3.05;;;28.30;34.80;;;;;;5015917;28;20478;-69
2023/06/15 10:08:39;;;;;;;6.85;2.80;;;28.20;34.80;;;;;;5015998;28;20077;-69
2023/06/15 10:11:05;;;;;;;5.63;3.00;;;28.40;35.40;;;;;;5014282;28;20080;-69
2023/06/15 10:13:52;;;;;;;6.10;2.97;;;28.70;35.30;;;;;;5014390;28;20289;-69
2023/06/15 10:16:20;;;;;;;7.18;2.90;;;28.90;34.50;;;;;;5015561;28;20072;-69
2023/06/15 10:18:52;;;;;;;8.73;2.80;;;28.70;34.20;;;;;;5015384;28;20046;-69
2023/06/15 10:21:21;;;;;;;5.88;2.72;;;28.30;34.10;;;;;;5015749;28;20093;-69
2023/06/15 10:23:53;;;;;;;5.13;2.78;;;28.50;34.50;;;;;;5015375;28;20042;-69
2023/06/15 10:26:19;;;;;;;6.03;2.75;;;28.90;33.80;;;;;;5015600;28;20120;-69
2023/06/15 10:28:58;;;;;;;7.88;3.00;;;29.40;33.90;;;;;;4997738;28;20054;-69
2023/06/15 10:31:51;;;;;;;7.65;2.95;;;29.40;33.00;;;;;;5015246;28;20099;-69
2023/06/15 10:34:30;;;;;;;7.80;2.90;;;29.50;34.50;;;;;;5015481;28;20111;-69
2023/06/15 10:37:25;;;;;;;7.45;2.95;;;29.30;34.90;;;;;;5015162;28;20045;-69
2023/06/15 10:39:53;;;;;;;6.18;3.10;;;29.50;34.60;;;;;;5013372;28;20126;-69
2023/06/15 10:42:19;;;;;;;8.18;2.90;;;29.30;35.10;;;;;;5015323;28;20092;-69
2023/06/15 10:44:45;;;;;;;5.45;2.60;;;29.40;33.60;;;;;;5015289;28;20483;-69
2023/06/15 10:47:13;;;;;;;6.35;2.85;;;29.50;31.40;;;;;;5015201;28;20045;-69
2023/06/15 10:49:52;;;;;;;7.15;3.15;;;28.70;32.70;;;;;;5015219;28;20053;-69
2023/06/15 10:52:18;;;;;;;8.27;3.00;;;28.90;34.70;;;;;;5013866;28;20081;-69
2023/06/15 10:54:44;;;;;;;6.10;2.78;;;29.20;34.00;;;;;;5015070;28;20089;-69
2023/06/15 10:57:25;;;;;;;9.18;2.90;;;29.40;33.70;;;;;;5014929;28;20104;-69
2023/06/15 10:59:56;;;;;;;6.45;2.95;;;29.80;33.30;;;;;;5013710;28;20073;-69
2023/06/15 11:02:28;;;;;;;5.43;2.63;;;29.90;33.40;;;;;;5015019;28;20394;-69
2023/06/15 11:05:01;;;;;;;5.30;2.78;;;30.20;33.20;;;;;;5014558;28;20046;-69
2023/06/15 11:07:29;;;;;;;7.50;2.97;;;28.90;31.30;;;;;;5014823;28;20050;-69
2023/06/15 11:10:00;;;;;;;5.38;2.72;;;28.60;31.60;;;;;;5014487;28;20073;-69
2023/06/15 11:12:44;;;;;;;;;;;29.00;32.80;;;;;;5014816;28;20046;-69
2023/06/15 11:15:16;;;;;;;6.50;2.80;;;29.20;31.00;;;;;;5013207;28;19960;-69
2023/06/15 11:17:58;;;;;;;6.03;2.58;;;29.20;30.10;;;;;;5014583;28;20064;-69
2023/06/15 11:20:56;;;;;;;6.65;2.70;;;29.10;31.90;;;;;;5014721;28;20090;-69
2023/06/15 11:23:24;;;;;;;5.43;2.80;;;29.50;33.00;;;;;;5014295;28;20073;-69
2023/06/15 11:25:51;;;;;;;5.75;2.83;;;29.80;32.10;;;;;;5012950;28;20049;-69
2023/06/15 11:28:24;;;;;;;7.13;2.80;;;30.00;30.50;;;;;;5014420;28;20100;-69
2023/06/15 11:30:53;;;;;;;5.78;2.78;;;29.80;30.20;;;;;;5012787;28;20046;-69
2023/06/15 11:33:36;;;;;;;6.32;2.80;;;29.60;30.40;;;;;;5014326;28;20128;-69
2023/06/15 11:36:09;;;;;;;5.35;2.70;;;29.40;31.20;;;;;;5014059;28;20046;-69
2023/06/15 11:38:35;;;;;;;7.70;3.05;;;29.50;31.40;;;;;;5013876;28;20042;-69
2023/06/15 11:41:02;;;;;;;6.93;2.70;;;29.80;32.30;;;;;;5014007;28;20045;-69
2023/06/15 11:43:38;;;;;;;5.40;2.65;;;30.00;32.30;;;;;;5014189;28;20143;-69
2023/06/15 11:46:04;;;;;;;7.57;2.67;;;30.00;30.30;;;;;;5014114;28;20038;-69
2023/06/15 11:48:30;;;;;;;6.43;2.83;;;29.20;30.00;;;;;;5013892;28;20516;-69
2023/06/15 11:50:59;;;;;;;7.15;2.72;;;29.00;30.40;;;;;;5013777;28;20038;-70
2023/06/15 11:53:25;;;;;;;6.30;2.80;;;29.30;30.10;;;;;;5013836;28;20533;-69
2023/06/15 11:55:51;;;;;;;7.68;2.90;;;29.30;30.30;;;;;;5012663;28;20078;-69
2023/06/15 11:58:19;;;;;;;6.68;2.60;;;29.20;30.80;;;;;;5013563;28;20149;-69
2023/06/15 12:00:45;;;;;;;5.70;2.65;;;29.50;31.50;;;;;;5013881;28;20037;-69
2023/06/15 12:03:11;;;;;;;5.43;2.70;;;29.80;29.90;;;;;;5013647;28;20512;-70
2023/06/15 12:05:38;;;;;;;6.70;2.80;;;29.30;30.20;;;;;;5013920;28;20038;-69
2023/06/15 12:08:06;;;;;;;7.85;2.53;;;29.50;30.00;;;;;;5012217;28;20049;-69
2023/06/15 12:10:39;;;;;;;5.40;2.80;;;29.20;30.00;;;;;;5012268;28;20067;-69
2023/06/15 12:13:12;;;;;;;5.90;2.97;;;29.20;30.90;;;;;;5012536;28;20045;-69
2023/06/15 12:15:41;;;;;;;6.65;2.80;;;28.90;31.50;;;;;;5013757;28;20049;-69
2023/06/15 12:18:08;;;;;;;8.80;3.03;;;28.60;31.90;;;;;;5013544;28;20077;-69
2023/06/15 12:20:37;;;;;;;5.80;2.83;;;28.40;32.00;;;;;;5013748;28;20034;-69
2023/06/15 12:23:04;;;;;;;7.07;2.70;;;28.70;31.90;;;;;;5013251;28;20042;-69
2023/06/15 12:25:45;;;;;;;6.78;2.88;;;28.90;31.60;;;;;;5012329;28;20042;-69
2023/06/15 12:28:18;;;;;;;7.68;3.00;;;28.40;30.90;;;;;;5013575;28;20042;-69
2023/06/15 12:30:49;;;;;;;6.10;2.75;;;28.00;31.50;;;;;;5013445;28;20045;-69
2023/06/15 12:33:26;;;;;;;8.20;2.70;;;27.90;31.90;;;;;;5013555;28;20088;-69
2023/06/15 12:35:52;;;;;;;7.55;2.90;;;28.40;31.10;;;;;;5013171;28;20044;-69
2023/06/15 12:38:19;;;;;;;6.53;2.80;;;28.70;30.80;;;;;;5011887;28;20050;-69
2023/06/15 12:40:45;;;;;;;6.35;3.00;;;28.70;31.30;;;;;;5011955;28;20042;-69
2023/06/15 12:43:11;;;;;;;7.40;2.90;;;28.50;31.40;;;;;;5013453;28;20042;-68
2023/06/15 12:45:37;;;;;;;7.82;2.90;;;28.70;32.10;;;;;;5013226;28;20394;-69
2023/06/15 12:48:07;;;;;;;6.45;3.00;;;28.90;30.50;;;;;;5013067;28;20050;-69